Shrewsbury, United Kingdom
Current Conditions -  °F | °C
As of 3:50 AM on Wednesday 22 Oct 2014 (Local Time) from EGOS Reporting Station
Broken Clouds Broken Clouds  
Wind Chill: 41°   Ceiling: 5000
Heat Index: 46°   Visibility: 6mi
Dew Point: 39°   Wind: 10mph
Humidity: 76%   Direction: 250°WSW
Pressure: 30.18"   Gusts: NA
Location:  52.71°N, 2.75°W
Report Text: EGOS 220250Z AUTO 25009KT 9999 BKN050/// 08/04 Q1022
Loading
Personal Weather Stations






























Interactive Weather Map
Tropical Storm Tracking
New forecast layout! Learn more

10-Day Weather Forecast

Advertisements
Track Severe Weather on mobile